Time;durP1;ratioP1;P1;durP2;ratioP2;P2;SDS_P1;SDS_P2;PMS_P1;PMS_P2;Temp;Humidity;BMP_temperature;BMP_pressure;BME280_temperature;BME280_humidity;BME280_pressure;Samples;Min_cycle;Max_cycle;Signal;HPM_P1;HPM_P2
2021/12/12 00:01:32;;;;;;;50.60;17.65;;;1.10;99.90;;;;;;5057217;28;20438;-68
2021/12/12 00:04:10;;;;;;;65.30;22.52;;;1.10;99.90;;;;;;5056662;28;20028;-68
2021/12/12 00:06:52;;;;;;;68.57;24.77;;;1.20;99.90;;;;;;5057156;28;20025;-68
2021/12/12 00:09:30;;;;;;;81.85;24.40;;;1.20;99.90;;;;;;5056307;28;20029;-68
2021/12/12 00:11:58;;;;;;;62.90;24.05;;;1.20;99.90;;;;;;5057988;28;20013;-68
2021/12/12 00:14:30;;;;;;;67.03;21.52;;;1.20;99.90;;;;;;5057446;28;20427;-68
2021/12/12 00:16:58;;;;;;;58.03;19.85;;;1.20;99.90;;;;;;5073303;28;20321;-68
2021/12/12 00:19:28;;;;;;;57.38;19.45;;;1.20;99.90;;;;;;5073727;28;20164;-68
2021/12/12 00:21:58;;;;;;;61.25;20.27;;;1.30;99.90;;;;;;5057875;28;20021;-68
2021/12/12 00:24:27;;;;;;;58.60;19.23;;;1.30;99.90;;;;;;5056172;28;20447;-68
2021/12/12 00:26:57;;;;;;;63.38;20.10;;;1.30;99.90;;;;;;5056387;28;20041;-68
2021/12/12 00:29:25;;;;;;;50.83;19.52;;;1.40;99.90;;;;;;5056887;28;20024;-68
2021/12/12 00:31:57;;;;;;;54.83;20.15;;;1.40;99.90;;;;;;5056296;28;20425;-68
2021/12/12 00:34:29;;;;;;;57.33;20.02;;;1.50;99.90;;;;;;5071925;28;20040;-68
2021/12/12 00:36:56;;;;;;;59.05;20.27;;;1.60;99.90;;;;;;5056839;28;20021;-68
2021/12/12 00:39:28;;;;;;;63.42;20.90;;;1.70;99.90;;;;;;5056209;28;20025;-68
2021/12/12 00:42:09;;;;;;;60.97;20.58;;;1.70;99.90;;;;;;5056437;28;20032;-68
2021/12/12 00:44:40;;;;;;;54.10;19.95;;;1.60;99.90;;;;;;5056314;28;20032;-68
2021/12/12 00:47:09;;;;;;;55.45;18.30;;;1.60;99.90;;;;;;5056468;28;20083;-68
2021/12/12 00:49:39;;;;;;;58.40;20.75;;;1.60;99.90;;;;;;5060901;28;20495;-68
2021/12/12 00:52:10;;;;;;;65.13;19.63;;;1.50;99.90;;;;;;5076668;28;20474;-68
2021/12/12 00:54:39;;;;;;;67.15;20.27;;;1.50;99.90;;;;;;5076819;28;20035;-68
2021/12/12 00:57:12;;;;;;;62.58;19.85;;;1.50;99.90;;;;;;5061480;28;20027;-68
2021/12/12 00:59:40;;;;;;;51.63;17.25;;;1.50;99.90;;;;;;5061274;28;20032;-68
2021/12/12 01:02:16;;;;;;;59.35;18.30;;;1.60;99.90;;;;;;5076452;28;20028;-68
2021/12/12 01:04:47;;;;;;;54.28;17.60;;;1.60;99.90;;;;;;5061022;28;20325;-68
2021/12/12 01:07:21;;;;;;;49.38;18.33;;;1.70;99.90;;;;;;5061255;28;20028;-68
2021/12/12 01:10:13;;;;;;;42.65;17.95;;;1.70;99.90;;;;;;5060348;28;20314;-68
2021/12/12 01:12:42;;;;;;;52.33;16.85;;;1.70;99.90;;;;;;5075330;28;20108;-68
2021/12/12 01:15:25;;;;;;;46.35;16.75;;;1.80;99.90;;;;;;5059908;28;20029;-68
2021/12/12 01:17:55;;;;;;;41.92;15.35;;;1.80;99.90;;;;;;5060223;28;20162;-68
2021/12/12 01:20:38;;;;;;;42.65;14.05;;;1.80;99.90;;;;;;5059595;28;20444;-68
2021/12/12 01:23:19;;;;;;;34.83;14.82;;;1.80;99.90;;;;;;5059924;28;20117;-68
2021/12/12 01:25:48;;;;;;;46.80;14.52;;;1.90;99.90;;;;;;5059585;28;20045;-68
2021/12/12 01:28:21;;;;;;;33.92;13.63;;;1.90;99.90;;;;;;5059469;28;20017;-68
2021/12/12 01:30:50;;;;;;;35.55;13.20;;;1.90;99.90;;;;;;5059481;28;20155;-68
2021/12/12 01:33:32;;;;;;;40.10;14.52;;;1.90;99.90;;;;;;5060396;28;20028;-68
2021/12/12 01:36:24;;;;;;;44.15;15.40;;;1.80;99.90;;;;;;5060246;28;20448;-68
2021/12/12 01:38:55;;;;;;;44.97;17.63;;;1.80;99.90;;;;;;5060996;28;20033;-68
2021/12/12 01:41:47;;;;;;;43.35;16.05;;;1.80;99.90;;;;;;5060310;28;20386;-68
2021/12/12 01:44:33;;;;;;;44.42;13.93;;;1.90;99.90;;;;;;5060432;28;20358;-68
2021/12/12 01:47:15;;;;;;;39.67;13.48;;;1.80;99.90;;;;;;5060382;28;20021;-68
2021/12/12 01:49:48;;;;;;;38.55;14.38;;;1.90;99.90;;;;;;5075630;28;20025;-68
2021/12/12 01:52:19;;;;;;;39.28;13.80;;;1.90;99.90;;;;;;5059481;28;20172;-68
2021/12/12 01:54:51;;;;;;;35.88;13.95;;;1.90;99.90;;;;;;5059162;28;20028;-68
2021/12/12 01:57:30;;;;;;;35.83;13.98;;;1.90;99.90;;;;;;5058968;28;20416;-68
2021/12/12 01:59:59;;;;;;;41.53;14.98;;;1.90;99.90;;;;;;5058582;28;20074;-68
2021/12/12 02:02:34;;;;;;;39.58;14.23;;;2.00;99.90;;;;;;5058903;28;20025;-68
2021/12/12 02:05:13;;;;;;;39.28;14.45;;;2.00;99.90;;;;;;5059198;28;20025;-68
2021/12/12 02:07:51;;;;;;;32.22;11.57;;;2.00;99.90;;;;;;5058698;28;20429;-68
2021/12/12 02:10:25;;;;;;;35.92;14.07;;;2.10;99.90;;;;;;5059313;28;20036;-68
2021/12/12 02:12:53;;;;;;;37.60;14.00;;;2.10;99.90;;;;;;5058668;28;20021;-68
2021/12/12 02:15:21;;;;;;;41.22;17.92;;;2.20;99.90;;;;;;5059238;28;20108;-68
2021/12/12 02:17:51;;;;;;;36.65;13.70;;;2.10;99.90;;;;;;5075162;28;20036;-68
2021/12/12 02:20:42;;;;;;;34.88;13.20;;;2.10;99.90;;;;;;5059386;28;20029;-68
2021/12/12 02:23:24;;;;;;;36.83;13.52;;;2.10;99.90;;;;;;5059423;28;20050;-68
2021/12/12 02:37:02;;;;;;;;;;;2.10;99.90;;;;;;5058651;28;20048;-68
2021/12/12 02:39:29;;;;;;;28.40;12.38;;;2.10;99.90;;;;;;5058437;28;19950;-68
2021/12/12 02:42:11;;;;;;;29.45;12.45;;;2.10;99.90;;;;;;5058156;28;20021;-68
2021/12/12 02:44:42;;;;;;;25.52;10.43;;;2.10;99.90;;;;;;5058248;28;20021;-68
2021/12/12 02:47:17;;;;;;;33.42;12.13;;;2.10;99.90;;;;;;5057989;28;20017;-68
2021/12/12 02:50:08;;;;;;;30.98;11.95;;;2.10;99.90;;;;;;5057878;28;20082;-68
2021/12/12 02:52:38;;;;;;;32.15;13.00;;;2.10;99.90;;;;;;5058239;28;20029;-68
2021/12/12 02:55:26;;;;;;;40.33;13.13;;;2.10;99.90;;;;;;5057865;28;20059;-68
2021/12/12 02:57:56;;;;;;;33.97;12.80;;;2.10;99.90;;;;;;5058483;28;20294;-68
2021/12/12 03:00:31;;;;;;;33.45;12.52;;;2.10;99.90;;;;;;5059727;28;20357;-68
2021/12/12 03:03:01;;;;;;;24.48;10.20;;;2.10;99.90;;;;;;5057576;28;20028;-68
2021/12/12 03:05:36;;;;;;;27.65;11.98;;;2.10;99.90;;;;;;5058633;28;20057;-68
2021/12/12 03:08:04;;;;;;;33.30;12.73;;;2.10;99.90;;;;;;5074102;28;20071;-68
2021/12/12 03:10:37;;;;;;;31.20;12.05;;;2.10;99.90;;;;;;5058458;28;20028;-68
2021/12/12 03:13:07;;;;;;;29.13;10.52;;;2.10;99.90;;;;;;5057164;28;20033;-68
2021/12/12 03:15:38;;;;;;;29.20;11.68;;;2.10;99.90;;;;;;5058421;28;20108;-68
2021/12/12 03:18:18;;;;;;;34.13;12.30;;;2.10;99.90;;;;;;5057582;28;20021;-68
2021/12/12 03:20:54;;;;;;;31.17;11.85;;;2.10;99.90;;;;;;5057327;28;20021;-68
2021/12/12 03:23:35;;;;;;;34.42;12.00;;;2.10;99.90;;;;;;5072958;28;20025;-68
2021/12/12 03:26:10;;;;;;;25.73;10.27;;;2.00;99.90;;;;;;5056935;28;20048;-68
2021/12/12 03:28:45;;;;;;;27.40;11.60;;;2.00;99.90;;;;;;5057300;28;20102;-68
2021/12/12 03:31:22;;;;;;;25.98;10.73;;;2.00;99.90;;;;;;5057167;28;20053;-68
2021/12/12 03:33:49;;;;;;;29.20;10.70;;;2.00;99.90;;;;;;5057848;28;20024;-68
2021/12/12 03:36:17;;;;;;;24.42;9.98;;;2.00;99.90;;;;;;5039413;28;20039;-68
2021/12/12 03:38:58;;;;;;;26.35;10.75;;;2.00;99.90;;;;;;5055922;28;20029;-68
2021/12/12 03:41:32;;;;;;;29.90;11.13;;;1.90;99.90;;;;;;5058250;28;20021;-68
2021/12/12 03:44:05;;;;;;;29.30;10.88;;;1.90;99.90;;;;;;5058127;28;20082;-68
2021/12/12 03:46:35;;;;;;;22.08;9.50;;;1.90;99.90;;;;;;5073311;28;20417;-68
2021/12/12 03:49:04;;;;;;;31.13;10.73;;;1.90;99.90;;;;;;5057807;28;20025;-68
2021/12/12 03:51:32;;;;;;;22.92;8.80;;;1.90;99.90;;;;;;5058016;28;20017;-68
2021/12/12 03:54:00;;;;;;;22.70;9.77;;;1.90;99.90;;;;;;5057913;28;20017;-68
2021/12/12 03:56:27;;;;;;;17.52;7.50;;;2.00;99.90;;;;;;5056524;28;20498;-68
2021/12/12 03:58:56;;;;;;;18.67;7.68;;;2.00;99.90;;;;;;5056582;28;20083;-68
2021/12/12 04:01:33;;;;;;;18.30;7.90;;;2.00;99.90;;;;;;5055756;28;20332;-68
2021/12/12 04:04:07;;;;;;;27.73;7.45;;;2.10;99.90;;;;;;5055727;28;20082;-68
2021/12/12 04:06:34;;;;;;;17.77;6.97;;;2.20;99.90;;;;;;5057040;28;20029;-68
2021/12/12 04:09:03;;;;;;;20.38;7.10;;;2.20;99.90;;;;;;5056525;28;20013;-68
2021/12/12 04:11:42;;;;;;;13.15;5.90;;;2.30;99.90;;;;;;5056805;28;20316;-68
2021/12/12 04:14:11;;;;;;;18.80;6.32;;;2.30;99.90;;;;;;5055383;28;20409;-68
2021/12/12 04:16:41;;;;;;;18.65;6.22;;;2.40;99.90;;;;;;5056472;28;20098;-68
2021/12/12 04:19:10;;;;;;;20.27;6.70;;;2.50;99.90;;;;;;5055316;28;20029;-68
2021/12/12 04:21:38;;;;;;;13.20;6.00;;;2.50;99.90;;;;;;5055369;28;20053;-68
2021/12/12 04:24:07;;;;;;;11.68;4.97;;;2.60;99.90;;;;;;5056849;28;20321;-68
2021/12/12 04:26:39;;;;;;;16.08;5.20;;;2.60;99.90;;;;;;5057008;28;20128;-68
2021/12/12 04:29:19;;;;;;;16.17;6.65;;;2.70;99.90;;;;;;5057241;28;20078;-68
2021/12/12 04:31:53;;;;;;;15.82;6.95;;;2.70;99.90;;;;;;5057450;28;20021;-68
2021/12/12 04:34:33;;;;;;;12.80;6.00;;;2.70;99.90;;;;;;5056113;28;20112;-68
2021/12/12 04:37:02;;;;;;;14.40;5.93;;;2.70;99.90;;;;;;5057144;28;20028;-68
2021/12/12 04:39:34;;;;;;;30.73;10.32;;;2.70;99.90;;;;;;5057073;28;20316;-68
2021/12/12 04:42:12;;;;;;;17.02;5.95;;;2.70;99.90;;;;;;5057827;28;20476;-68
2021/12/12 04:44:42;;;;;;;12.60;6.32;;;2.70;99.90;;;;;;5056661;28;20052;-68
2021/12/12 04:50:34;;;;;;;13.40;6.25;;;2.70;99.90;;;;;;5056295;28;20070;-68
2021/12/12 04:53:12;;;;;;;16.00;6.43;;;2.80;99.90;;;;;;5054948;28;20100;-68
2021/12/12 04:56:04;;;;;;;16.58;6.32;;;2.70;99.90;;;;;;5056352;28;20029;-68
2021/12/12 04:58:45;;;;;;;14.75;5.97;;;2.70;99.90;;;;;;5056044;28;20089;-68
2021/12/12 05:01:50;;;;;;;14.05;5.88;;;2.70;99.90;;;;;;5055042;28;20421;-68
2021/12/12 05:04:38;;;;;;;12.80;6.25;;;2.70;99.90;;;;;;5056715;28;20031;-68
2021/12/12 05:07:49;;;;;;;16.95;6.57;;;2.70;99.90;;;;;;5045982;28;20341;-68
2021/12/12 05:10:39;;;;;;;16.30;6.28;;;2.70;99.90;;;;;;5035960;28;20155;-68
2021/12/12 05:13:21;;;;;;;16.17;5.93;;;2.70;99.90;;;;;;5056845;28;20294;-68
2021/12/12 05:15:59;;;;;;;17.33;5.93;;;2.60;99.90;;;;;;5056845;28;20052;-68
2021/12/12 05:18:35;;;;;;;18.05;6.45;;;2.60;99.90;;;;;;5057301;28;20104;-68
2021/12/12 05:21:09;;;;;;;17.73;7.10;;;2.60;99.90;;;;;;5057222;28;20056;-68
2021/12/12 05:23:42;;;;;;;19.05;7.80;;;2.50;99.90;;;;;;5055570;28;20033;-68
2021/12/12 05:26:24;;;;;;;19.88;7.53;;;2.60;99.90;;;;;;5056027;28;20053;-69
2021/12/12 05:29:06;;;;;;;23.38;7.03;;;2.50;99.90;;;;;;5054660;28;20079;-68
2021/12/12 05:31:34;;;;;;;17.75;7.28;;;2.50;99.90;;;;;;5055746;28;20045;-68
2021/12/12 05:34:03;;;;;;;16.30;7.50;;;2.50;99.90;;;;;;5056420;28;20096;-68
2021/12/12 05:36:34;;;;;;;19.98;7.68;;;2.50;99.90;;;;;;5058491;28;20333;-68
2021/12/12 05:39:05;;;;;;;22.10;7.07;;;2.50;99.90;;;;;;5059305;28;20376;-68
2021/12/12 05:41:33;;;;;;;22.40;8.27;;;2.50;99.90;;;;;;5059337;28;20376;-68
2021/12/12 05:44:01;;;;;;;15.95;7.10;;;2.50;99.90;;;;;;5059824;28;20032;-68
2021/12/12 05:46:29;;;;;;;17.08;8.23;;;2.50;99.90;;;;;;5059268;28;20029;-68
2021/12/12 05:48:59;;;;;;;12.38;6.40;;;2.50;99.90;;;;;;5059840;28;20128;-68
2021/12/12 05:51:28;;;;;;;15.30;7.20;;;2.50;99.90;;;;;;5060323;28;20090;-68
2021/12/12 05:53:55;;;;;;;19.50;8.50;;;2.60;99.90;;;;;;5060059;28;20021;-68
2021/12/12 05:56:30;;;;;;;20.40;8.45;;;2.60;99.90;;;;;;5060057;28;20028;-68
2021/12/12 05:58:58;;;;;;;17.05;7.97;;;2.60;99.90;;;;;;5058793;28;20067;-68
2021/12/12 06:01:27;;;;;;;15.07;6.97;;;2.60;99.90;;;;;;5059857;28;20413;-68
2021/12/12 06:03:54;;;;;;;17.95;7.20;;;2.60;99.90;;;;;;5060334;28;20032;-68
2021/12/12 06:06:34;;;;;;;20.98;6.70;;;2.60;99.90;;;;;;5059753;28;20025;-68
2021/12/12 06:09:05;;;;;;;18.83;6.88;;;2.60;99.90;;;;;;5059359;28;20028;-68
2021/12/12 06:11:35;;;;;;;14.90;6.80;;;2.60;99.90;;;;;;5058753;28;20025;-68
2021/12/12 06:14:04;;;;;;;16.58;7.00;;;2.60;99.90;;;;;;5058660;28;20100;-68
2021/12/12 06:16:35;;;;;;;12.63;5.38;;;2.60;99.90;;;;;;5058693;28;20029;-68
2021/12/12 06:19:19;;;;;;;11.95;5.45;;;2.60;99.90;;;;;;5059111;28;20029;-68
2021/12/12 06:21:51;;;;;;;16.45;7.18;;;2.60;99.90;;;;;;5057485;28;20437;-68
2021/12/12 06:24:21;;;;;;;18.70;7.05;;;2.70;99.90;;;;;;5057177;28;20425;-68
2021/12/12 06:26:48;;;;;;;17.33;7.75;;;2.70;99.90;;;;;;5058200;28;20056;-68
2021/12/12 06:29:16;;;;;;;20.13;8.57;;;2.60;99.90;;;;;;5058330;28;20029;-68
2021/12/12 06:31:48;;;;;;;24.23;7.43;;;2.60;99.90;;;;;;5058657;28;20091;-69
2021/12/12 06:34:16;;;;;;;15.90;6.35;;;2.60;99.90;;;;;;5059148;28;20088;-68
2021/12/12 06:36:44;;;;;;;18.67;6.20;;;2.60;99.90;;;;;;5059249;28;20052;-68
2021/12/12 06:39:14;;;;;;;12.05;6.47;;;2.60;99.90;;;;;;5059059;28;20017;-68
2021/12/12 06:41:43;;;;;;;17.35;7.10;;;2.60;99.90;;;;;;5059294;28;20021;-68
2021/12/12 06:44:11;;;;;;;19.38;7.72;;;2.60;99.90;;;;;;5058975;28;20048;-68
2021/12/12 06:46:41;;;;;;;15.18;6.53;;;2.50;99.90;;;;;;5058769;28;20025;-68
2021/12/12 06:49:12;;;;;;;14.60;6.88;;;2.50;99.90;;;;;;5059481;28;20032;-68
2021/12/12 06:52:01;;;;;;;19.13;6.90;;;2.50;99.90;;;;;;5059423;28;20071;-68
2021/12/12 06:54:30;;;;;;;14.18;5.20;;;2.50;99.90;;;;;;5058435;28;20096;-68
2021/12/12 06:57:05;;;;;;;24.25;8.13;;;2.50;99.90;;;;;;5058356;28;20028;-68
2021/12/12 06:59:34;;;;;;;16.45;7.20;;;2.50;99.90;;;;;;5058510;28;20021;-68
2021/12/12 07:02:03;;;;;;;14.90;6.47;;;2.50;99.90;;;;;;5057782;28;20025;-68
2021/12/12 07:04:31;;;;;;;9.88;5.25;;;2.50;99.90;;;;;;5057958;28;20102;-68
2021/12/12 07:07:02;;;;;;;13.18;6.45;;;2.50;99.90;;;;;;5057674;28;20029;-68
2021/12/12 07:09:31;;;;;;;16.45;6.50;;;2.50;99.90;;;;;;5057725;28;20052;-68
2021/12/12 07:12:05;;;;;;;16.88;6.43;;;2.50;99.90;;;;;;5057586;28;20017;-68
2021/12/12 07:14:34;;;;;;;12.20;6.40;;;2.50;99.90;;;;;;5057942;28;20021;-68
2021/12/12 07:17:02;;;;;;;17.75;7.93;;;2.50;99.90;;;;;;5058433;28;20077;-68
2021/12/12 07:19:30;;;;;;;14.60;6.95;;;2.40;99.90;;;;;;5058898;28;20025;-68
2021/12/12 07:22:02;;;;;;;16.23;6.30;;;2.40;99.90;;;;;;5058369;28;20078;-68
2021/12/12 07:24:31;;;;;;;18.30;6.13;;;2.40;99.90;;;;;;5058220;28;20025;-69
2021/12/12 07:26:59;;;;;;;20.25;7.85;;;2.40;99.90;;;;;;5057994;28;20056;-69
2021/12/12 07:29:27;;;;;;;16.27;7.30;;;2.40;99.90;;;;;;5057257;28;20021;-68
2021/12/12 07:31:56;;;;;;;13.50;6.15;;;2.40;99.90;;;;;;5057159;28;20313;-71
2021/12/12 07:34:24;;;;;;;16.90;6.60;;;2.40;99.90;;;;;;5058152;28;20091;-69
2021/12/12 07:36:59;;;;;;;18.67;7.35;;;2.40;99.90;;;;;;5057093;28;20021;-70
2021/12/12 07:39:29;;;;;;;20.33;9.07;;;2.40;99.90;;;;;;5057205;28;20032;-69
2021/12/12 07:42:01;;;;;;;13.52;6.18;;;2.40;99.90;;;;;;5056138;28;20151;-69
2021/12/12 07:44:35;;;;;;;14.02;5.47;;;2.40;99.90;;;;;;5057625;28;20356;-69
2021/12/12 07:47:05;;;;;;;15.55;6.03;;;2.40;99.90;;;;;;5057082;28;20021;-68
2021/12/12 07:49:41;;;;;;;13.35;5.57;;;2.50;99.90;;;;;;5057694;28;20024;-68
2021/12/12 07:52:15;;;;;;;15.18;5.78;;;2.50;99.90;;;;;;5057460;28;20017;-68
2021/12/12 07:54:45;;;;;;;10.90;4.90;;;2.40;99.90;;;;;;5057475;28;20029;-68
2021/12/12 07:57:14;;;;;;;22.35;7.68;;;2.50;99.90;;;;;;5056282;28;20486;-68
2021/12/12 07:59:45;;;;;;;14.35;5.72;;;2.50;99.90;;;;;;5058108;28;20028;-68
2021/12/12 08:02:14;;;;;;;20.38;7.63;;;2.50;99.90;;;;;;5057687;28;20021;-68
2021/12/12 08:04:44;;;;;;;15.93;6.20;;;2.50;99.90;;;;;;5058121;28;20025;-68
2021/12/12 08:07:14;;;;;;;14.57;5.78;;;2.50;99.90;;;;;;5058226;28;20084;-68
2021/12/12 08:09:45;;;;;;;13.38;4.82;;;2.60;99.90;;;;;;5058171;28;20021;-69
2021/12/12 08:12:18;;;;;;;14.65;5.32;;;2.60;99.90;;;;;;5058094;28;20018;-70
2021/12/12 08:14:46;;;;;;;8.50;4.38;;;2.60;99.90;;;;;;5058350;28;20028;-69
2021/12/12 08:17:16;;;;;;;12.75;5.57;;;2.60;99.90;;;;;;5057559;28;20109;-68
2021/12/12 08:19:44;;;;;;;12.15;5.45;;;2.70;99.90;;;;;;5057375;28;20372;-68
2021/12/12 08:22:12;;;;;;;15.77;8.52;;;2.70;99.90;;;;;;5055782;28;20029;-68
2021/12/12 08:24:40;;;;;;;8.82;4.65;;;2.70;99.90;;;;;;5056976;28;20375;-68
2021/12/12 08:27:09;;;;;;;8.57;4.32;;;2.70;99.90;;;;;;5056487;28;20044;-69
2021/12/12 08:29:37;;;;;;;9.70;4.82;;;2.70;99.90;;;;;;5056584;28;20170;-70
2021/12/12 08:32:07;;;;;;;8.38;3.30;;;2.70;99.90;;;;;;5056563;28;20032;-68
2021/12/12 08:34:35;;;;;;;12.18;4.40;;;2.80;99.90;;;;;;5056955;28;20398;-68
2021/12/12 08:37:05;;;;;;;15.10;7.22;;;2.80;99.90;;;;;;5055283;28;20298;-68
2021/12/12 08:39:35;;;;;;;16.90;6.13;;;2.80;99.90;;;;;;5055329;28;20021;-68
2021/12/12 08:42:06;;;;;;;15.48;5.53;;;2.80;99.90;;;;;;5056737;28;20067;-68
2021/12/12 08:44:35;;;;;;;11.07;4.53;;;2.80;99.90;;;;;;5057669;28;20070;-68
2021/12/12 08:47:09;;;;;;;9.77;4.50;;;2.90;99.90;;;;;;5039436;28;20029;-68
2021/12/12 08:49:42;;;;;;;12.05;4.53;;;2.90;99.90;;;;;;5057293;28;20017;-68
2021/12/12 08:52:17;;;;;;;15.25;4.65;;;2.90;99.90;;;;;;5057161;28;20025;-68
2021/12/12 08:54:47;;;;;;;8.48;3.50;;;3.00;99.90;;;;;;5057432;28;20104;-68
2021/12/12 08:57:38;;;;;;;13.10;3.95;;;3.00;99.90;;;;;;5057301;28;20025;-68
2021/12/12 09:00:14;;;;;;;9.10;3.72;;;3.10;99.90;;;;;;5057364;28;20096;-68
2021/12/12 09:02:42;;;;;;;8.15;3.88;;;3.10;99.90;;;;;;5056076;28;20028;-68
2021/12/12 09:05:17;;;;;;;7.15;2.65;;;3.20;99.90;;;;;;5056047;28;20035;-69
2021/12/12 09:07:50;;;;;;;6.00;2.95;;;3.20;99.90;;;;;;5054887;28;20032;-68
2021/12/12 09:10:25;;;;;;;7.80;3.45;;;3.20;99.90;;;;;;5057144;28;20024;-68
2021/12/12 09:12:59;;;;;;;7.68;3.22;;;3.20;99.90;;;;;;5060376;28;20017;-68
2021/12/12 09:15:47;;;;;;;17.73;5.90;;;3.20;99.90;;;;;;5060790;28;20094;-68
2021/12/12 09:18:32;;;;;;;17.95;6.43;;;3.10;99.90;;;;;;5059809;28;20056;-68
2021/12/12 09:21:28;;;;;;;17.08;4.03;;;3.10;99.90;;;;;;5059739;28;20049;-68
2021/12/12 09:24:11;;;;;;;7.40;3.83;;;3.10;99.90;;;;;;5060125;28;20389;-68
2021/12/12 09:26:48;;;;;;;10.98;3.13;;;3.10;99.90;;;;;;5060721;28;20147;-68
2021/12/12 09:29:22;;;;;;;11.75;4.25;;;3.10;99.90;;;;;;5061068;28;20027;-68
2021/12/12 09:32:00;;;;;;;14.35;4.65;;;3.10;99.90;;;;;;5061046;28;20021;-68
2021/12/12 09:34:41;;;;;;;6.57;2.80;;;3.10;99.90;;;;;;5060590;28;20029;-68
2021/12/12 09:37:23;;;;;;;7.95;3.33;;;3.10;99.90;;;;;;5060310;28;20032;-68
2021/12/12 09:40:01;;;;;;;12.05;4.15;;;3.10;99.90;;;;;;5060248;28;20075;-68
2021/12/12 09:42:36;;;;;;;8.05;3.63;;;3.10;99.90;;;;;;5060760;28;20048;-68
2021/12/12 09:45:25;;;;;;;9.65;3.90;;;3.00;99.90;;;;;;5059359;28;20458;-68
2021/12/12 09:51:14;;;;;;;12.73;3.90;;;3.10;99.90;;;;;;5058077;28;20044;-68
2021/12/12 09:51:27;;;;;;;10.35;4.70;;;3.10;99.90;;;;;;5059083;28;20021;-68
2021/12/12 09:54:16;;;;;;;8.43;3.25;;;3.10;99.90;;;;;;5059383;28;20074;-68
2021/12/12 09:57:20;;;;;;;9.48;3.47;;;3.10;99.90;;;;;;5059818;28;20025;-68
2021/12/12 10:00:04;;;;;;;5.88;3.55;;;3.10;99.90;;;;;;5059140;28;20064;-68
2021/12/12 10:02:56;;;;;;;7.93;3.63;;;3.10;99.90;;;;;;5059569;28;20032;-68
2021/12/12 10:05:50;;;;;;;9.75;3.47;;;3.20;99.90;;;;;;5059232;28;20118;-68
2021/12/12 10:08:36;;;;;;;10.10;3.42;;;3.20;99.90;;;;;;5060024;28;20017;-68
2021/12/12 10:11:40;;;;;;;12.38;3.75;;;3.30;99.90;;;;;;5058718;28;20108;-68
2021/12/12 10:14:32;;;;;;;14.13;5.03;;;3.30;99.90;;;;;;5041573;28;20437;-68
2021/12/12 10:17:39;;;;;;;14.32;5.07;;;3.30;99.90;;;;;;5059627;28;20067;-68
2021/12/12 10:20:19;;;;;;;7.10;3.00;;;3.40;99.90;;;;;;5059626;28;20028;-68
2021/12/12 10:23:06;;;;;;;10.60;3.50;;;3.40;99.90;;;;;;5059525;28;20021;-68
2021/12/12 10:26:01;;;;;;;13.50;5.30;;;3.50;99.90;;;;;;5059584;28;20416;-69
2021/12/12 10:28:59;;;;;;;6.10;3.17;;;3.50;99.90;;;;;;5058476;28;20029;-68
2021/12/12 10:32:05;;;;;;;9.40;3.58;;;3.60;99.90;;;;;;5057516;28;20021;-69
2021/12/12 10:34:46;;;;;;;6.82;3.13;;;3.60;99.90;;;;;;5050416;28;20383;-68
2021/12/12 10:37:28;;;;;;;7.05;3.65;;;3.60;99.90;;;;;;5058778;28;20025;-68
2021/12/12 10:40:01;;;;;;;12.07;3.55;;;3.60;99.90;;;;;;5059043;28;20021;-68
2021/12/12 10:42:37;;;;;;;9.60;3.28;;;3.60;99.90;;;;;;5057141;28;20440;-68
2021/12/12 10:45:09;;;;;;;;;;;3.60;99.90;;;;;;5058549;28;20028;-69
2021/12/12 10:57:45;;;;;;;6.80;2.75;;;3.60;99.90;;;;;;5059181;28;20095;-70
2021/12/12 11:00:22;;;;;;;10.45;2.90;;;3.70;99.90;;;;;;5059175;28;20352;-68
2021/12/12 11:03:02;;;;;;;7.07;3.10;;;3.70;99.90;;;;;;5059036;28;20356;-68
2021/12/12 11:05:39;;;;;;;8.40;2.97;;;3.80;99.90;;;;;;5059247;28;20025;-68
2021/12/12 11:08:25;;;;;;;4.53;2.22;;;3.80;99.90;;;;;;5058213;28;20289;-68
2021/12/12 11:10:55;;;;;;;3.63;2.13;;;3.90;99.90;;;;;;5058446;28;20021;-68
2021/12/12 11:13:34;;;;;;;7.60;3.03;;;3.90;99.90;;;;;;5057619;28;20017;-68
2021/12/12 11:16:37;;;;;;;5.13;2.85;;;3.90;99.90;;;;;;5057611;28;20078;-71
2021/12/12 11:19:27;;;;;;;5.10;3.20;;;4.00;99.90;;;;;;5044854;28;20113;-68
2021/12/12 11:22:29;;;;;;;5.13;2.70;;;4.00;99.90;;;;;;5057970;28;20025;-68
2021/12/12 11:25:13;;;;;;;4.10;2.50;;;4.00;99.90;;;;;;5044210;28;20040;-68
2021/12/12 11:27:52;;;;;;;7.85;2.03;;;4.00;99.90;;;;;;5056043;28;20048;-68
2021/12/12 11:30:47;;;;;;;5.25;1.92;;;4.00;99.90;;;;;;5056387;28;20045;-68
2021/12/12 11:33:17;;;;;;;5.18;1.98;;;4.00;99.90;;;;;;5058311;28;20025;-68
2021/12/12 11:35:51;;;;;;;2.90;1.85;;;4.00;99.90;;;;;;5058482;28;20029;-69
2021/12/12 11:38:38;;;;;;;4.05;2.35;;;4.00;99.90;;;;;;5058120;28;20021;-68
2021/12/12 11:41:24;;;;;;;10.13;4.13;;;4.00;99.90;;;;;;5058639;28;20025;-68
2021/12/12 11:44:09;;;;;;;4.97;2.35;;;4.00;99.90;;;;;;5058575;28;20417;-68
2021/12/12 11:46:51;;;;;;;4.28;2.60;;;4.00;99.90;;;;;;5056934;28;20056;-68
2021/12/12 11:49:28;;;;;;;5.03;3.00;;;4.00;99.90;;;;;;5058416;28;20029;-68
2021/12/12 11:52:04;;;;;;;6.32;3.20;;;4.00;99.90;;;;;;5056946;28;20029;-68
2021/12/12 11:54:46;;;;;;;7.70;3.67;;;4.00;99.90;;;;;;5057584;28;20032;-68
2021/12/12 11:57:25;;;;;;;5.68;3.33;;;4.00;99.90;;;;;;5057374;28;20021;-68
2021/12/12 12:00:09;;;;;;;5.43;2.53;;;3.90;99.90;;;;;;5056863;28;20479;-68
2021/12/12 12:02:46;;;;;;;7.93;4.72;;;3.90;99.90;;;;;;5057301;28;20021;-68
2021/12/12 12:05:38;;;;;;;7.20;3.03;;;4.00;99.90;;;;;;5057381;28;20024;-68
2021/12/12 12:08:41;;;;;;;6.00;2.63;;;3.90;99.90;;;;;;5049684;28;20447;-68
2021/12/12 12:11:45;;;;;;;5.28;2.78;;;4.00;99.90;;;;;;5057196;28;20031;-68
2021/12/12 12:14:40;;;;;;;5.18;3.50;;;3.90;99.90;;;;;;5057624;28;20021;-69
2021/12/12 12:17:21;;;;;;;6.90;3.40;;;4.00;99.90;;;;;;5057587;28;20045;-68
2021/12/12 12:20:12;;;;;;;5.15;2.78;;;4.00;99.90;;;;;;5056330;28;20067;-68
2021/12/12 12:23:17;;;;;;;4.18;2.28;;;4.00;99.90;;;;;;5057349;28;20017;-68
2021/12/12 12:28:57;;;;;;;;;;;4.00;99.90;;;;;;5058041;28;20060;-68
2021/12/12 12:31:55;;;;;;;5.93;2.25;;;4.00;99.90;;;;;;5057584;28;19958;-68
2021/12/12 12:34:51;;;;;;;4.60;2.60;;;4.00;99.90;;;;;;5056739;28;20042;-68
2021/12/12 12:37:54;;;;;;;4.72;2.72;;;4.00;99.90;;;;;;5056803;28;20035;-68
2021/12/12 12:40:58;;;;;;;4.80;2.33;;;4.10;99.90;;;;;;5057022;28;20405;-68
2021/12/12 12:44:10;;;;;;;7.90;3.38;;;4.10;99.90;;;;;;5057718;28;20032;-68
2021/12/12 12:47:12;;;;;;;6.32;2.55;;;4.10;99.90;;;;;;5060181;28;20029;-68
2021/12/12 12:50:15;;;;;;;4.40;2.75;;;4.10;99.90;;;;;;5060606;28;20021;-68
2021/12/12 12:53:20;;;;;;;8.82;2.88;;;4.10;99.90;;;;;;5060673;28;20029;-68
2021/12/12 12:56:22;;;;;;;5.95;3.28;;;4.10;99.90;;;;;;5059596;28;20029;-68
2021/12/12 12:59:19;;;;;;;4.13;2.28;;;4.20;99.90;;;;;;5061642;28;20029;-68
2021/12/12 13:02:15;;;;;;;6.88;2.97;;;4.10;99.90;;;;;;5061640;28;20017;-68
2021/12/12 13:05:08;;;;;;;7.05;2.78;;;4.20;99.90;;;;;;5061359;28;20021;-68
2021/12/12 13:07:41;;;;;;;6.18;3.80;;;4.20;99.90;;;;;;5061286;28;20037;-68
2021/12/12 13:10:17;;;;;;;5.20;2.97;;;4.20;99.90;;;;;;5061578;28;20020;-69
2021/12/12 13:13:15;;;;;;;8.00;4.53;;;4.20;99.90;;;;;;5060862;28;20025;-68
2021/12/12 13:15:51;;;;;;;5.45;3.30;;;4.20;99.90;;;;;;5060701;28;20090;-69
2021/12/12 13:18:31;;;;;;;5.55;3.33;;;4.20;99.90;;;;;;5060360;28;20028;-68
2021/12/12 13:21:16;;;;;;;6.13;3.38;;;4.30;99.90;;;;;;5060497;28;20032;-69
2021/12/12 13:24:05;;;;;;;6.90;4.00;;;4.30;99.90;;;;;;5059647;28;20039;-69
2021/12/12 13:27:31;;;;;;;5.68;3.05;;;4.30;99.90;;;;;;5059622;28;20053;-69
2021/12/12 13:30:26;;;;;;;8.45;4.10;;;4.30;99.90;;;;;;5037928;28;20044;-69
2021/12/12 13:33:10;;;;;;;10.02;3.42;;;4.30;99.90;;;;;;5058713;28;20345;-69
2021/12/12 13:36:02;;;;;;;5.15;3.25;;;4.30;99.90;;;;;;5060283;28;20027;-68
2021/12/12 13:39:12;;;;;;;6.68;3.33;;;4.30;99.90;;;;;;5058780;28;20025;-68
2021/12/12 13:42:06;;;;;;;6.32;3.03;;;4.40;99.90;;;;;;5060578;28;20025;-69
2021/12/12 13:44:51;;;;;;;7.32;3.85;;;4.40;99.90;;;;;;5060512;28;20082;-69
2021/12/12 13:48:03;;;;;;;7.90;3.20;;;4.40;99.90;;;;;;5059152;28;20374;-69
2021/12/12 13:50:41;;;;;;;7.72;3.95;;;4.40;99.90;;;;;;5055356;28;20037;-69
2021/12/12 13:53:13;;;;;;;6.10;3.95;;;4.40;99.90;;;;;;5060356;28;20025;-69
2021/12/12 13:56:07;;;;;;;8.32;3.60;;;4.40;99.90;;;;;;5059784;28;20028;-69
2021/12/12 13:58:57;;;;;;;5.03;2.63;;;4.50;99.90;;;;;;5059432;28;20029;-68
2021/12/12 14:01:46;;;;;;;8.35;4.90;;;4.50;99.90;;;;;;5059032;28;20021;-68
2021/12/12 14:04:31;;;;;;;4.32;2.60;;;4.50;99.90;;;;;;5059011;28;20021;-69
2021/12/12 14:06:59;;;;;;;8.40;3.83;;;4.50;99.90;;;;;;5058965;28;20028;-69
2021/12/12 14:09:29;;;;;;;12.23;5.95;;;4.50;99.90;;;;;;5059113;28;20021;-69
2021/12/12 14:11:59;;;;;;;6.43;3.28;;;4.60;99.90;;;;;;5058842;28;20417;-68